Time;durP1;ratioP1;P1;durP2;ratioP2;P2;SDS_P1;SDS_P2;PMS_P1;PMS_P2;Temp;Humidity;BMP_temperature;BMP_pressure;BME280_temperature;BME280_humidity;BME280_pressure;Samples;Min_cycle;Max_cycle;Signal;HPM_P1;HPM_P2
2023/07/06 00:01:55;;;;;;;9.38;6.07;;;;;;;21.76;50.11;93561.03;4976713;28;20562;-92
2023/07/06 00:04:21;;;;;;;13.60;6.57;;;;;;;21.74;50.24;93552.56;4977853;28;20041;-93
2023/07/06 00:06:48;;;;;;;9.23;5.80;;;;;;;21.73;50.19;93562.81;4994629;28;20045;-92
2023/07/06 00:09:14;;;;;;;7.22;5.57;;;;;;;21.73;50.19;93565.56;4972742;28;20568;-91
2023/07/06 00:11:39;;;;;;;8.52;5.75;;;;;;;21.73;50.04;93557.31;4958522;28;20041;-92
2023/07/06 00:14:07;;;;;;;10.90;6.47;;;;;;;21.74;50.15;93550.53;4958800;28;20480;-92
2023/07/06 00:16:33;;;;;;;8.63;5.88;;;;;;;21.76;50.17;93555.53;4977558;28;20038;-93
2023/07/06 00:18:58;;;;;;;9.35;5.97;;;;;;;21.77;50.32;93557.00;4977603;28;20049;-91
2023/07/06 00:21:25;;;;;;;7.57;5.63;;;;;;;21.76;50.28;93550.00;4976794;28;20038;-92
2023/07/06 00:23:52;;;;;;;9.73;6.47;;;;;;;21.74;50.13;93556.03;4976933;28;20049;-93
2023/07/06 00:26:20;;;;;;;9.00;5.80;;;;;;;21.74;50.26;93549.81;4977356;28;20121;-93
2023/07/06 00:28:48;;;;;;;8.02;5.63;;;;;;;21.74;50.32;93555.31;4978360;28;20034;-92
2023/07/06 00:31:21;;;;;;;8.52;5.45;;;;;;;21.75;49.98;93551.28;4976582;28;20101;-91
2023/07/06 00:33:48;;;;;;;8.75;5.38;;;;;;;21.73;50.32;93551.81;4978955;28;20042;-92
2023/07/06 00:36:14;;;;;;;10.38;5.68;;;;;;;21.71;50.20;93554.34;4977950;28;20145;-92
2023/07/06 00:38:40;;;;;;;9.25;5.60;;;;;;;21.72;50.07;93555.84;4975969;28;20042;-93
2023/07/06 00:41:05;;;;;;;8.13;5.13;;;;;;;21.75;50.08;93552.03;4976206;28;20452;-92
2023/07/06 00:43:49;;;;;;;9.15;5.80;;;;;;;21.73;50.07;93551.81;4993604;28;20381;-92
2023/07/06 00:46:15;;;;;;;11.38;6.13;;;;;;;21.72;50.32;93555.84;4976931;28;20046;-92
2023/07/06 00:48:44;;;;;;;10.43;5.03;;;;;;;21.75;49.98;93543.78;4977752;28;20048;-92
2023/07/06 00:51:16;;;;;;;8.23;5.85;;;;;;;21.73;50.09;93532.56;4976674;28;20046;-92
2023/07/06 00:53:43;;;;;;;8.20;5.22;;;;;;;21.73;50.17;93543.56;4977616;28;20033;-92
2023/07/06 00:56:10;;;;;;;7.25;5.47;;;;;;;21.72;50.33;93552.34;4977081;28;20052;-92
2023/07/06 00:58:39;;;;;;;7.90;5.53;;;;;;;21.72;50.25;93550.31;4977400;28;20030;-93
2023/07/06 01:01:06;;;;;;;8.95;5.35;;;;;;;21.72;50.09;93550.31;4975367;28;20062;-92
2023/07/06 01:03:32;;;;;;;10.40;5.78;;;;;;;21.72;50.24;93541.34;4977114;28;20034;-93
2023/07/06 01:06:00;;;;;;;8.35;5.60;;;;;;;21.71;50.19;93537.09;4977238;28;20046;-92
2023/07/06 01:08:25;;;;;;;7.47;5.50;;;;;;;21.72;50.33;93555.84;4976633;28;20038;-92
2023/07/06 01:10:52;;;;;;;7.80;5.63;;;;;;;21.70;50.04;93555.63;4976685;28;20038;-93
2023/07/06 01:13:19;;;;;;;7.38;4.80;;;;;;;21.73;50.24;93551.06;4976837;28;20053;-92
2023/07/06 01:15:48;;;;;;;8.35;5.32;;;;;;;21.71;50.21;93546.09;4976421;28;20492;-92
2023/07/06 01:18:23;;;;;;;8.55;4.88;;;;;;;21.71;50.40;93548.09;4976065;28;20049;-92
2023/07/06 01:21:09;;;;;;;5.95;4.70;;;;;;;21.70;50.22;93539.09;4977435;28;20104;-92
2023/07/06 01:23:44;;;;;;;9.05;5.43;;;;;;;21.70;50.22;93530.84;4976615;28;20042;-92
2023/07/06 01:26:13;;;;;;;7.00;4.88;;;;;;;21.70;50.39;93539.09;4993326;28;20042;-92
2023/07/06 01:28:45;;;;;;;6.90;5.03;;;;;;;21.70;50.35;93543.88;5019890;28;20054;-92
2023/07/06 01:31:21;;;;;;;10.85;5.55;;;;;;;21.71;50.50;93545.34;4996868;28;20049;-92
2023/07/06 01:33:58;;;;;;;8.75;5.45;;;;;;;21.71;50.20;93550.84;4982248;28;20117;-92
2023/07/06 01:36:43;;;;;;;7.80;5.80;;;;;;;21.70;50.29;93549.38;5007876;28;20121;-93
2023/07/06 01:39:13;;;;;;;7.55;5.30;;;;;;;21.70;50.35;93554.88;4964804;28;20047;-92
2023/07/06 01:41:40;;;;;;;7.38;5.03;;;;;;;21.70;50.15;93552.88;4976271;28;20124;-92
2023/07/06 01:44:11;;;;;;;8.23;5.18;;;;;;;21.71;50.22;93542.59;4976240;28;20081;-92
2023/07/06 01:46:36;;;;;;;7.18;4.80;;;;;;;21.69;50.41;93545.13;4975865;28;20073;-93
2023/07/06 01:49:02;;;;;;;7.53;5.15;;;;;;;21.69;50.27;93545.13;4976649;28;20069;-92
2023/07/06 01:51:40;;;;;;;6.40;5.07;;;;;;;21.67;50.29;93553.91;4975731;28;20326;-92
2023/07/06 01:54:08;;;;;;;5.47;4.57;;;;;;;21.71;50.33;93543.34;4975400;28;20056;-91
2023/07/06 01:56:57;;;;;;;7.57;4.80;;;;;;;21.69;50.32;93551.38;4976554;28;20045;-92
2023/07/06 01:59:23;;;;;;;7.80;5.00;;;;;;;21.69;50.27;93550.63;4991978;28;20069;-92
2023/07/06 02:01:51;;;;;;;7.03;5.18;;;;;;;21.71;50.54;93551.59;4974429;28;20038;-93
2023/07/06 02:04:20;;;;;;;8.43;5.18;;;;;;;21.71;50.22;93559.09;4974883;28;20042;-93
2023/07/06 02:06:46;;;;;;;9.88;5.43;;;;;;;21.71;50.26;93551.59;4976527;28;20448;-92
2023/07/06 02:09:14;;;;;;;7.75;5.03;;;;;;;21.69;50.62;93553.38;4974993;28;20030;-92
2023/07/06 02:11:40;;;;;;;6.30;4.65;;;;;;;21.70;50.20;93552.13;4975909;28;20049;-93
2023/07/06 02:14:05;;;;;;;7.15;5.07;;;;;;;21.69;50.26;93561.66;4991544;28;20128;-92
2023/07/06 02:16:30;;;;;;;5.80;4.28;;;;;;;21.68;50.24;93558.16;4989779;28;20049;-92
2023/07/06 02:18:58;;;;;;;6.60;4.45;;;;;;;21.68;50.27;93565.66;4988724;28;20519;-92
2023/07/06 02:21:24;;;;;;;7.25;4.30;;;;;;;21.69;50.02;93572.66;4995300;28;20468;-93
2023/07/06 02:23:50;;;;;;;6.30;4.50;;;;;;;21.71;50.14;93573.59;4987852;28;20121;-93
2023/07/06 02:26:16;;;;;;;5.78;4.57;;;;;;;21.69;50.29;93576.16;4995516;28;20046;-93
2023/07/06 02:28:42;;;;;;;7.28;4.50;;;;;;;21.68;50.02;93577.41;4991915;28;20042;-93
2023/07/06 02:31:08;;;;;;;8.55;4.78;;;;;;;21.69;50.28;93586.41;4991058;28;20049;-93
2023/07/06 02:33:36;;;;;;;6.38;4.30;;;;;;;21.69;50.20;93578.16;4976129;28;20096;-92
2023/07/06 02:36:02;;;;;;;6.57;4.55;;;;;;;21.70;50.27;93574.13;4963606;28;20065;-92
2023/07/06 02:38:30;;;;;;;8.40;5.18;;;;;;;21.66;50.29;93563.44;4975047;28;20085;-92
2023/07/06 02:40:57;;;;;;;8.10;4.88;;;;;;;21.66;50.16;93563.44;4976502;28;20049;-93
2023/07/06 02:43:22;;;;;;;7.18;4.38;;;;;;;21.67;50.37;93559.41;4960650;28;20049;-92
2023/07/06 02:45:48;;;;;;;5.28;4.13;;;;;;;21.67;50.40;93564.94;4991174;28;20030;-92
2023/07/06 02:48:13;;;;;;;5.13;4.30;;;;;;;21.68;50.54;93562.91;4992131;28;20044;-92
2023/07/06 02:50:39;;;;;;;6.15;4.47;;;;;;;21.66;50.42;93559.94;4980531;28;20317;-92
2023/07/06 02:53:04;;;;;;;9.02;4.93;;;;;;;21.66;50.43;93552.44;4973697;28;20037;-92
2023/07/06 02:55:32;;;;;;;5.82;4.30;;;;;;;21.68;50.33;93538.91;4976256;28;20401;-92
2023/07/06 02:57:57;;;;;;;5.80;3.90;;;;;;;21.66;50.32;93532.44;4976203;28;20038;-93
2023/07/06 03:00:24;;;;;;;6.93;4.00;;;;;;;21.67;50.36;93551.16;4974546;28;20085;-91
2023/07/06 03:02:49;;;;;;;6.05;3.92;;;;;;;21.65;50.38;93556.44;4978141;28;20472;-92
2023/07/06 03:05:14;;;;;;;4.85;3.97;;;;;;;21.67;50.49;93553.91;4994541;28;20045;-92
2023/07/06 03:07:40;;;;;;;5.18;4.20;;;;;;;21.66;50.44;93548.94;4978776;28;20549;-92
2023/07/06 03:10:08;;;;;;;6.95;4.50;;;;;;;21.67;50.36;93537.41;4978397;28;20052;-92
2023/07/06 03:12:36;;;;;;;6.55;4.28;;;;;;;21.67;50.38;93542.16;4979856;28;20037;-93
2023/07/06 03:15:06;;;;;;;7.55;4.38;;;;;;;21.67;50.07;93544.91;4981761;28;20072;-92
2023/07/06 03:17:32;;;;;;;6.13;4.18;;;;;;;21.66;50.18;93533.19;4979334;28;20042;-92
2023/07/06 03:19:57;;;;;;;5.20;3.38;;;;;;;21.65;50.80;93545.44;4979679;28;20042;-92
2023/07/06 03:22:23;;;;;;;6.43;3.90;;;;;;;21.67;50.44;93531.91;4977868;28;20038;-93
2023/07/06 03:24:48;;;;;;;6.30;4.43;;;;;;;21.74;50.43;93541.53;4978810;28;20497;-92
2023/07/06 03:27:13;;;;;;;6.97;4.25;;;;;;;21.69;50.36;93539.63;4978038;28;20420;-93
2023/07/06 03:29:40;;;;;;;22.83;15.43;;;;;;;21.70;50.73;93532.88;4986831;28;20041;-94
2023/07/06 03:32:06;;;;;;;75.85;50.85;;;;;;;21.73;50.81;93545.56;5005226;28;20060;-91
2023/07/06 03:34:38;;;;;;;72.72;40.92;;;;;;;21.74;50.55;93538.78;4989030;28;20043;-93
2023/07/06 03:37:04;;;;;;;9.00;6.90;;;;;;;21.76;50.29;93550.75;5010596;28;20103;-89
2023/07/06 03:39:30;;;;;;;6.18;4.30;;;;;;;21.75;50.20;93554.78;4994412;28;20041;-90
2023/07/06 03:41:55;;;;;;;18.27;15.40;;;;;;;21.75;50.24;93560.28;4978119;28;20393;-93
2023/07/06 03:44:21;;;;;;;25.38;22.30;;;;;;;21.74;50.51;93564.31;4972340;28;20137;-92
2023/07/06 03:46:47;;;;;;;207.88;118.28;;;;;;;21.76;51.80;93564.50;4975315;28;20041;-95
2023/07/06 03:49:13;;;;;;;11.43;5.35;;;;;;;21.68;51.85;93571.91;4991676;28;20030;-90
2023/07/06 03:51:38;;;;;;;6.03;4.32;;;;;;;21.53;52.48;93564.19;4979270;28;20124;-90
2023/07/06 03:54:06;;;;;;;16.67;8.55;;;;;;;21.32;53.01;93573.56;4991167;28;20567;-91
2023/07/06 03:56:32;;;;;;;63.25;24.10;;;;;;;21.23;53.55;93574.69;5009211;28;20405;-91
2023/07/06 03:58:57;;;;;;;28.77;9.55;;;;;;;21.08;54.05;93575.16;4993584;28;20045;-91
2023/07/06 04:01:28;;;;;;;19.67;8.63;;;;;;;20.96;54.26;93570.38;4976605;28;20042;-92
2023/07/06 04:03:55;;;;;;;34.70;10.52;;;;;;;20.80;54.72;93578.34;5008645;28;20770;-94
2023/07/06 04:06:23;;;;;;;39.67;13.60;;;;;;;20.77;54.67;93575.94;4976794;28;20100;-92
2023/07/06 04:08:48;;;;;;;24.75;10.38;;;;;;;20.75;55.11;93581.19;4977414;28;20030;-92
2023/07/06 04:11:14;;;;;;;40.53;19.20;;;;;;;20.66;55.16;93582.31;4971814;28;20054;-92
2023/07/06 04:13:40;;;;;;;47.83;19.20;;;;;;;20.61;55.66;93582.38;4975101;28;20477;-92
2023/07/06 04:16:05;;;;;;;39.60;15.50;;;;;;;20.49;55.94;93581.81;4972055;28;20085;-93
2023/07/06 04:18:33;;;;;;;60.28;17.15;;;;;;;20.45;56.20;93586.84;4981607;28;20046;-94
2023/07/06 04:21:00;;;;;;;31.83;11.52;;;;;;;20.43;56.53;93581.13;4973794;28;20042;-93
2023/07/06 04:23:25;;;;;;;19.08;8.00;;;;;;;20.37;56.79;93585.94;4976165;28;20034;-93
2023/07/06 04:25:53;;;;;;;48.15;15.02;;;;;;;20.26;57.18;93584.09;4970215;28;20121;-92
2023/07/06 04:28:18;;;;;;;33.42;13.95;;;;;;;20.19;57.44;93581.91;4964479;28;20050;-93
2023/07/06 04:30:45;;;;;;;26.08;8.40;;;;;;;20.15;57.59;93589.69;4980011;28;20049;-93
2023/07/06 04:33:14;;;;;;;36.33;10.35;;;;;;;20.16;57.49;93578.19;4994832;28;20049;-93
2023/07/06 04:35:41;;;;;;;213.57;32.90;;;;;;;20.08;57.85;93596.53;4975937;28;20042;-93
2023/07/06 04:38:06;;;;;;;26.42;8.50;;;;;;;20.04;58.16;93593.34;4977232;28;20076;-93
2023/07/06 04:40:32;;;;;;;38.72;9.43;;;;;;;20.06;58.02;93592.81;4977052;28;20066;-93
2023/07/06 04:43:00;;;;;;;24.23;6.40;;;;;;;20.09;57.84;93597.28;4973888;28;20108;-94
2023/07/06 04:45:28;;;;;;;14.68;6.55;;;;;;;19.96;58.49;93600.66;4987119;28;20677;-93
2023/07/06 04:47:56;;;;;;;31.75;13.80;;;;;;;19.96;58.49;93588.94;4972488;28;20051;-95
2023/07/06 04:50:22;;;;;;;49.03;18.05;;;;;;;19.91;58.80;93593.25;4980645;28;22391;-94
2023/07/06 04:52:51;;;;;;;84.38;34.65;;;;;;;20.00;58.78;93601.09;5001735;28;20045;-92
2023/07/06 04:55:22;;;;;;;98.75;49.03;;;;;;;20.01;58.60;93601.84;4992803;28;20111;-93
2023/07/06 04:57:50;;;;;;;;;;;;;;;19.99;58.49;93599.63;4980262;28;20489;-93
2023/07/06 05:00:18;;;;;;;135.88;34.03;;;;;;;20.03;58.51;93602.09;4993896;28;20351;-93
2023/07/06 05:02:46;;;;;;;81.60;23.40;;;;;;;20.00;58.97;93592.88;4984442;28;20633;-92
2023/07/06 05:05:12;;;;;;;52.22;18.80;;;;;;;20.00;59.26;93597.63;4993062;28;20065;-91
2023/07/06 05:07:38;;;;;;;58.03;17.45;;;;;;;19.99;59.05;93588.66;4975741;28;20580;-93
2023/07/06 05:10:05;;;;;;;37.92;16.45;;;;;;;19.98;59.29;93587.16;4985709;28;20142;-95
2023/07/06 05:12:32;;;;;;;39.47;20.35;;;;;;;20.02;58.91;93590.34;4995351;28;20046;-93
2023/07/06 05:15:02;;;;;;;44.83;19.60;;;;;;;19.97;58.96;93591.16;4978579;28;20531;-95
2023/07/06 05:17:28;;;;;;;39.17;17.75;;;;;;;20.01;59.08;93585.38;4971084;28;20050;-94
2023/07/06 05:19:54;;;;;;;26.83;12.23;;;;;;;20.03;58.93;93585.63;4991300;28;20052;-94
2023/07/06 05:22:19;;;;;;;59.80;20.25;;;;;;;20.11;58.93;93581.03;4982446;28;20037;-93
2023/07/06 05:24:48;;;;;;;43.38;19.75;;;;;;;20.04;58.76;93587.09;4973065;28;20068;-92
2023/07/06 05:27:14;;;;;;;25.00;12.82;;;;;;;19.98;59.00;93592.66;4995372;28;20049;-93
2023/07/06 05:29:40;;;;;;;41.70;13.85;;;;;;;20.04;58.67;93596.06;5000098;28;20046;-95
2023/07/06 05:32:06;;;;;;;28.48;12.60;;;;;;;20.13;58.69;93597.72;4993993;28;20433;-93
2023/07/06 05:34:32;;;;;;;39.63;19.33;;;;;;;20.14;59.05;93599.94;4993609;28;20064;-90
2023/07/06 05:36:58;;;;;;;68.60;31.10;;;;;;;20.16;58.82;93586.44;4986144;28;20034;-94
2023/07/06 05:39:24;;;;;;;103.10;43.83;;;;;;;20.14;58.98;93586.22;4959683;28;20056;-92
2023/07/06 05:41:51;;;;;;;148.32;65.85;;;;;;;20.18;59.26;93583.19;4985109;28;20053;-93
2023/07/06 05:44:16;;;;;;;250.68;140.52;;;;;;;20.28;59.34;93587.06;4983414;28;20062;-94
2023/07/06 05:46:44;;;;;;;149.55;76.25;;;;;;;20.30;59.38;93587.28;4987855;28;20125;-93
2023/07/06 05:49:09;;;;;;;200.73;113.78;;;;;;;20.34;58.97;93589.72;4974937;28;20202;-91
2023/07/06 05:51:36;;;;;;;192.23;110.07;;;;;;;20.38;59.24;93587.44;4998008;28;20497;-92
2023/07/06 05:54:13;;;;;;;116.82;62.45;;;;;;;20.35;59.72;93582.97;5003060;28;20056;-93
2023/07/06 05:56:55;;;;;;;90.35;51.78;;;;;;;20.45;59.37;93593.09;4983417;28;20061;-94
2023/07/06 05:59:24;;;;;;;67.80;35.08;;;;;;;20.45;59.65;93590.34;5016306;28;20080;-93
2023/07/06 06:01:50;;;;;;;51.17;27.00;;;;;;;20.41;59.57;93597.38;4973891;28;20458;-95
2023/07/06 06:04:15;;;;;;;51.80;22.30;;;;;;;20.30;59.38;93595.50;4958658;28;20046;-91
2023/07/06 06:06:52;;;;;;;70.85;33.17;;;;;;;20.31;59.80;93590.78;4974648;28;20050;-90
2023/07/06 06:09:17;;;;;;;64.40;41.92;;;;;;;20.34;58.76;93600.72;4991335;28;20042;-91
2023/07/06 06:11:43;;;;;;;69.68;48.95;;;;;;;20.24;58.49;93585.84;4965003;28;20056;-90
2023/07/06 06:14:09;;;;;;;64.82;56.42;;;;;;;20.21;58.51;93593.13;4988580;28;20045;-90
2023/07/06 06:16:35;;;;;;;26.08;13.35;;;;;;;20.37;58.22;93592.19;4961758;28;20077;-92
2023/07/06 06:19:01;;;;;;;16.00;9.35;;;;;;;20.39;58.11;93592.41;4959771;28;20050;-92
2023/07/06 06:21:29;;;;;;;15.57;10.13;;;;;;;20.42;57.51;93591.38;4958009;28;20123;-92
2023/07/06 06:23:57;;;;;;;14.07;8.65;;;;;;;20.36;56.79;93593.41;4953783;28;20054;-93
2023/07/06 06:26:24;;;;;;;13.38;9.30;;;;;;;20.32;56.42;93601.22;4968950;28;20121;-91
2023/07/06 06:28:49;;;;;;;6.55;5.45;;;;;;;20.31;55.93;93607.25;4949511;28;20052;-91
2023/07/06 06:31:15;;;;;;;14.05;8.32;;;;;;;20.25;56.00;93612.03;4954722;28;20046;-91
2023/07/06 06:33:44;;;;;;;23.27;8.52;;;;;;;20.26;55.77;93613.53;4946895;28;20127;-91
2023/07/06 06:36:12;;;;;;;40.13;18.20;;;;;;;20.32;55.77;93609.47;4963986;28;20043;-92
2023/07/06 06:38:37;;;;;;;40.08;20.58;;;;;;;20.30;56.10;93609.25;4957107;28;20042;-94
2023/07/06 06:41:11;;;;;;;44.95;23.77;;;;;;;20.30;56.11;93616.72;4935857;29;20067;-91
2023/07/06 06:43:38;;;;;;;47.83;18.40;;;;;;;20.40;55.84;93610.38;4926916;29;20422;-92
2023/07/06 06:46:06;;;;;;;30.55;12.55;;;;;;;20.33;55.20;93608.22;4933043;28;20518;-91
2023/07/06 06:48:32;;;;;;;30.60;13.57;;;;;;;20.39;54.55;93617.13;4956362;28;20125;-93
2023/07/06 06:50:58;;;;;;;22.35;11.18;;;;;;;20.49;53.54;93612.75;4918672;28;20502;-92
2023/07/06 06:53:24;;;;;;;25.52;11.80;;;;;;;20.48;53.63;93608.53;4964901;28;20051;-92
2023/07/06 06:55:50;;;;;;;23.88;11.00;;;;;;;20.42;53.61;93613.34;4936194;28;20058;-91
2023/07/06 06:58:17;;;;;;;18.88;9.45;;;;;;;20.48;53.40;93613.28;4952230;28;20078;-89
2023/07/06 07:00:44;;;;;;;17.08;7.28;;;;;;;20.42;53.57;93616.09;4948905;28;20047;-92
2023/07/06 07:03:11;;;;;;;11.10;5.55;;;;;;;20.43;52.53;93614.09;4959704;28;20487;-90
2023/07/06 07:05:37;;;;;;;12.45;5.50;;;;;;;20.34;52.59;93612.44;4936120;28;20042;-92
2023/07/06 07:08:03;;;;;;;16.02;5.80;;;;;;;20.35;52.95;93604.94;4946631;28;20162;-90
2023/07/06 07:10:29;;;;;;;16.67;8.02;;;;;;;20.41;52.78;93608.38;4951342;28;20377;-90
2023/07/06 07:12:54;;;;;;;27.65;13.13;;;;;;;20.46;52.70;93605.56;4982375;28;20058;-90
2023/07/06 07:15:20;;;;;;;105.72;22.08;;;;;;;20.53;52.89;93610.47;4977297;28;20046;-92
2023/07/06 07:17:46;;;;;;;15.77;7.18;;;;;;;20.51;52.52;93618.47;4978747;28;20049;-91
2023/07/06 07:20:13;;;;;;;35.33;7.90;;;;;;;20.48;51.81;93616.03;4977739;28;20404;-92
2023/07/06 07:22:39;;;;;;;23.55;8.70;;;;;;;20.45;51.67;93617.06;4998250;28;20042;-90
2023/07/06 07:25:07;;;;;;;18.20;7.68;;;;;;;20.43;51.68;93620.31;4976131;28;20627;-93
2023/07/06 07:27:35;;;;;;;10.57;5.28;;;;;;;20.51;50.81;93618.47;4992143;28;20092;-91
2023/07/06 07:30:04;;;;;;;13.57;4.32;;;;;;;20.55;48.56;93612.69;4965935;28;20050;-91
2023/07/06 07:32:30;;;;;;;13.88;5.85;;;;;;;20.55;48.86;93609.94;4973173;28;20741;-92
2023/07/06 07:34:57;;;;;;;14.52;7.30;;;;;;;20.50;49.04;93619.75;4992940;28;20034;-90
2023/07/06 07:37:25;;;;;;;14.70;4.70;;;;;;;20.53;47.42;93615.97;4978986;28;20050;-91
2023/07/06 07:39:51;;;;;;;9.77;5.30;;;;;;;20.55;47.35;93615.44;4966849;28;20042;-91
2023/07/06 07:42:16;;;;;;;13.60;5.65;;;;;;;20.65;47.36;93618.53;4962263;28;20042;-92
2023/07/06 07:44:46;;;;;;;9.68;5.72;;;;;;;20.65;47.71;93619.28;4978252;28;20057;-93
2023/07/06 07:47:12;;;;;;;17.45;9.05;;;;;;;20.63;47.97;93626.56;4992169;28;20061;-90
2023/07/06 07:49:38;;;;;;;13.73;7.70;;;;;;;20.61;47.54;93618.84;4975909;28;20050;-90
2023/07/06 07:52:05;;;;;;;20.00;5.32;;;;;;;20.67;47.18;93625.00;4988834;28;20043;-94
2023/07/06 07:54:30;;;;;;;10.57;7.20;;;;;;;20.54;46.56;93622.19;4980255;28;20049;-92
2023/07/06 07:56:56;;;;;;;13.55;10.43;;;;;;;20.53;47.39;93623.47;4990264;28;20091;-90
2023/07/06 07:59:25;;;;;;;7.40;3.78;;;;;;;20.39;47.16;93621.88;4991277;28;20401;-93
2023/07/06 08:01:50;;;;;;;13.20;4.07;;;;;;;20.46;46.82;93616.53;4982310;28;20041;-94
2023/07/06 08:04:17;;;;;;;8.00;3.25;;;;;;;20.50;47.23;93624.50;4998694;28;20046;-93
2023/07/06 08:06:46;;;;;;;18.83;4.05;;;;;;;20.53;46.89;93623.47;4992201;28;20045;-93
2023/07/06 08:09:13;;;;;;;6.00;3.20;;;;;;;20.53;46.43;93626.94;5014970;28;20049;-93
2023/07/06 08:11:46;;;;;;;6.05;3.38;;;;;;;20.52;46.94;93628.22;5003712;28;20065;-93
2023/07/06 08:14:12;;;;;;;4.35;3.03;;;;;;;20.58;46.61;93628.09;4984300;28;20133;-93
2023/07/06 08:16:40;;;;;;;6.38;4.43;;;;;;;20.57;46.74;93623.88;4986188;28;20058;-92
2023/07/06 08:19:07;;;;;;;7.38;3.53;;;;;;;20.68;46.12;93623.00;5011703;28;20046;-92
2023/07/06 08:21:34;;;;;;;5.28;3.33;;;;;;;20.61;46.39;93618.84;4996965;28;20065;-92
2023/07/06 08:23:59;;;;;;;5.05;3.13;;;;;;;20.56;46.92;93625.16;4978110;28;20310;-91
2023/07/06 08:26:29;;;;;;;9.95;3.50;;;;;;;20.59;46.43;93615.13;4996448;28;20712;-91
2023/07/06 08:28:55;;;;;;;43.40;10.50;;;;;;;20.67;46.88;93627.00;4985201;28;20156;-91
2023/07/06 08:31:21;;;;;;;14.40;4.40;;;;;;;20.71;47.23;93628.19;4977413;28;20034;-91
2023/07/06 08:33:47;;;;;;;34.45;9.35;;;;;;;20.71;47.25;93621.97;4986256;28;20140;-92
2023/07/06 08:36:13;;;;;;;43.67;11.57;;;;;;;20.68;47.46;93614.75;4990329;28;20042;-92
2023/07/06 08:38:39;;;;;;;98.50;48.90;;;;;;;20.86;47.28;93619.50;4996104;28;20050;-91
2023/07/06 08:41:26;;;;;;;61.28;25.85;;;;;;;20.81;47.95;93629.28;5005694;28;20085;-89
2023/07/06 08:43:52;;;;;;;68.10;32.42;;;;;;;20.85;47.15;93620.75;4980766;28;20042;-90
2023/07/06 08:46:18;;;;;;;77.07;30.45;;;;;;;20.84;47.33;93628.25;4990805;28;20050;-92
2023/07/06 08:48:43;;;;;;;77.03;27.85;;;;;;;20.81;47.50;93629.28;4996255;28;20046;-93
2023/07/06 08:51:23;;;;;;;96.88;28.77;;;;;;;20.85;47.91;93618.00;4986675;28;20053;-91
2023/07/06 08:54:00;;;;;;;74.53;21.47;;;;;;;20.87;48.24;93629.97;4977367;28;20172;-90
2023/07/06 08:56:26;;;;;;;71.30;22.35;;;;;;;20.93;48.09;93624.38;4975465;28;20268;-91
2023/07/06 08:58:52;;;;;;;43.80;18.83;;;;;;;20.98;48.18;93629.06;4992933;28;20155;-91
2023/07/06 09:01:21;;;;;;;17.27;8.00;;;;;;;20.96;48.51;93625.34;4990889;28;20824;-93
2023/07/06 09:03:59;;;;;;;205.07;171.50;;;;;;;20.97;48.93;93633.06;4981656;28;20046;-92
2023/07/06 09:06:26;;;;;;;22.80;10.40;;;;;;;21.05;49.17;93624.94;5004980;28;20056;-90
2023/07/06 09:09:02;;;;;;;24.70;6.90;;;;;;;21.05;49.27;93633.19;4988229;28;20038;-90
2023/07/06 09:11:31;;;;;;;22.17;7.47;;;;;;;20.97;49.58;93633.06;4981130;28;20451;-90
2023/07/06 09:13:57;;;;;;;38.67;21.45;;;;;;;20.98;49.64;93629.06;4982988;28;20053;-91
2023/07/06 09:16:23;;;;;;;30.73;10.98;;;;;;;20.88;48.92;93636.94;4960811;28;20058;-91
2023/07/06 09:18:52;;;;;;;20.70;9.35;;;;;;;20.94;48.13;93636.13;4972001;28;20074;-92
2023/07/06 09:21:22;;;;;;;17.27;6.15;;;;;;;20.83;48.11;93632.25;5009187;28;20050;-92
2023/07/06 09:23:47;;;;;;;10.00;5.63;;;;;;;20.74;49.53;93631.91;5004192;28;20044;-90
2023/07/06 09:26:35;;;;;;;13.80;6.18;;;;;;;20.61;49.81;93624.31;4991686;28;20283;-90
2023/07/06 09:29:18;;;;;;;13.43;7.63;;;;;;;20.60;49.61;93638.59;4975599;28;20141;-92
2023/07/06 09:31:44;;;;;;;16.63;8.23;;;;;;;20.62;49.45;93636.81;4980128;28;20040;-91
2023/07/06 09:34:24;;;;;;;44.67;19.20;;;;;;;20.62;49.86;93644.28;4997730;28;20044;-91
2023/07/06 09:36:51;;;;;;;;;;;;;;;20.63;49.42;93640.28;4983039;28;20065;-91
2023/07/06 09:39:17;;;;;;;23.30;12.43;;;;;;;20.68;49.66;93642.22;5025404;28;19941;-90
2023/07/06 09:41:45;;;;;;;98.93;45.70;;;;;;;20.70;49.73;93626.72;4985333;28;20038;-92
2023/07/06 09:44:29;;;;;;;99.25;33.15;;;;;;;20.78;49.83;93630.34;4999995;28;20625;-92
2023/07/06 09:46:55;;;;;;;31.30;14.50;;;;;;;20.79;49.88;93636.56;4987567;28;20042;-94
2023/07/06 09:49:32;;;;;;;37.78;12.48;;;;;;;20.75;50.99;93638.91;4978217;28;20123;-91
2023/07/06 09:52:10;;;;;;;36.00;12.70;;;;;;;20.77;50.78;93631.63;4982984;28;20446;-91
2023/07/06 09:54:54;;;;;;;24.35;10.23;;;;;;;20.78;50.45;93627.59;4975252;28;20041;-91
2023/07/06 09:57:20;;;;;;;50.92;9.90;;;;;;;20.85;50.48;93626.25;5020333;28;20050;-91
2023/07/06 09:59:47;;;;;;;16.27;6.47;;;;;;;20.86;50.39;93625.72;4979492;28;20151;-91
2023/07/06 10:02:31;;;;;;;11.30;6.85;;;;;;;20.88;50.12;93619.72;4990066;28;20042;-93
2023/07/06 10:05:01;;;;;;;10.93;5.47;;;;;;;20.94;49.78;93623.13;4975170;28;20046;-90
2023/07/06 10:07:53;;;;;;;27.20;6.68;;;;;;;20.89;49.22;93618.44;4972965;28;20041;-91
2023/07/06 10:10:52;;;;;;;13.90;4.50;;;;;;;20.87;50.25;93616.22;4973670;28;20042;-93
2023/07/06 10:13:21;;;;;;;10.65;5.78;;;;;;;20.83;49.28;93610.28;5023049;28;20039;-93
2023/07/06 10:16:06;;;;;;;7.05;4.90;;;;;;;20.85;49.07;93602.25;5008908;28;20087;-93
2023/07/06 10:18:35;;;;;;;8.82;5.75;;;;;;;20.91;48.89;93610.44;5012570;28;20072;-92
2023/07/06 10:21:30;;;;;;;7.68;5.43;;;;;;;20.87;48.85;93609.97;4989671;28;20046;-93
2023/07/06 10:24:12;;;;;;;11.73;5.32;;;;;;;20.96;48.83;93601.38;4985106;28;20042;-92
2023/07/06 10:26:43;;;;;;;8.93;5.68;;;;;;;20.96;48.48;93612.34;5006888;28;20042;-90
2023/07/06 10:29:10;;;;;;;7.00;4.63;;;;;;;20.98;48.02;93612.56;4987889;28;20099;-89
2023/07/06 10:31:43;;;;;;;11.13;5.65;;;;;;;20.96;47.53;93611.63;4964016;28;20053;-91
2023/07/06 10:34:19;;;;;;;9.13;5.22;;;;;;;20.98;48.08;93607.09;4989226;28;20604;-92
2023/07/06 10:36:45;;;;;;;6.63;4.10;;;;;;;20.97;47.25;93610.34;4989948;28;20152;-92
2023/07/06 10:39:33;;;;;;;6.78;4.70;;;;;;;21.03;46.60;93616.47;4969876;28;20558;-92
2023/07/06 10:42:03;;;;;;;6.22;4.40;;;;;;;21.06;47.15;93612.69;4995400;28;20041;-91
2023/07/06 10:44:43;;;;;;;12.75;5.38;;;;;;;20.97;47.37;93618.59;4979187;28;20046;-90
2023/07/06 10:47:28;;;;;;;6.43;4.78;;;;;;;20.95;47.35;93619.13;5010353;28;20081;-89
2023/07/06 10:50:19;;;;;;;12.70;6.90;;;;;;;20.95;47.79;93618.38;5009367;28;20053;-89
2023/07/06 10:52:52;;;;;;;;;;;;;;;20.92;48.00;93613.91;5002095;28;20053;-88
2023/07/06 10:55:23;;;;;;;12.88;7.47;;;;;;;20.96;47.63;93606.13;5008525;28;19959;-89
2023/07/06 10:57:51;;;;;;;11.27;8.35;;;;;;;20.86;48.12;93609.25;5018265;28;20033;-89
2023/07/06 11:00:18;;;;;;;14.68;6.32;;;;;;;20.94;47.42;93614.13;4972593;28;20046;-88
2023/07/06 11:02:44;;;;;;;48.45;11.55;;;;;;;20.95;47.00;93607.38;5005969;28;20045;-90
2023/07/06 11:05:15;;;;;;;33.10;16.70;;;;;;;20.96;46.66;93615.09;4987819;28;20417;-90
2023/07/06 11:07:50;;;;;;;8.20;4.50;;;;;;;20.94;46.97;93611.38;5012248;28;20053;-92
2023/07/06 11:10:21;;;;;;;36.63;14.05;;;;;;;20.88;46.60;93614.22;5002414;28;20049;-89
2023/07/06 11:13:02;;;;;;;17.38;6.57;;;;;;;20.96;46.59;93620.59;4986966;28;20030;-89
2023/07/06 11:15:48;;;;;;;48.78;19.17;;;;;;;20.97;46.80;93624.09;5001460;28;20042;-89
2023/07/06 11:18:26;;;;;;;21.67;10.02;;;;;;;21.04;46.80;93621.47;4989778;28;20058;-90
2023/07/06 11:21:13;;;;;;;11.88;7.03;;;;;;;20.98;47.34;93618.06;4986265;28;20420;-89
2023/07/06 11:23:50;;;;;;;14.50;6.30;;;;;;;21.02;47.74;93621.25;5002461;28;20073;-91
2023/07/06 11:26:26;;;;;;;22.40;8.40;;;;;;;21.06;47.79;93618.94;4967068;28;20132;-90
2023/07/06 11:28:53;;;;;;;13.68;7.13;;;;;;;21.05;47.66;93625.69;4991688;28;20054;-93
2023/07/06 11:31:30;;;;;;;21.48;10.82;;;;;;;20.99;47.65;93616.81;4974713;28;20035;-91
2023/07/06 11:34:20;;;;;;;12.18;7.43;;;;;;;21.05;47.91;93611.94;4996786;28;20046;-91
2023/07/06 11:37:08;;;;;;;78.50;37.67;;;;;;;20.96;47.74;93612.34;4989037;28;20069;-90